Time,TemperatureF,DewpointF,PressureIn,WindDirection,WindDirectionDegrees,WindSpeedMPH,WindSpeedGustMPH,Humidity,HourlyPrecipIn,Conditions,Clouds,dailyrainin,SoftwareType,DateUTC
2013-11-06 00:01:00,32.2,30.9,29.98,NNE,30,5.8,5.8,95,0.00,-SN,,0.00,WeatherDisplay:10.37,2013-11-06 06:01:00,
2013-11-06 00:06:00,32.2,30.9,29.98,NNW,334,4.6,4.6,95,0.00,-SN,,0.00,WeatherDisplay:10.37,2013-11-06 06:06:00,
2013-11-06 00:11:00,32.2,30.9,29.98,NNW,336,4.6,4.6,95,0.00,-SN,,0.00,WeatherDisplay:10.37,2013-11-06 06:11:00,
2013-11-06 00:16:00,32.2,30.9,29.98,NNE,33,6.9,6.9,95,0.00,-SN,,0.00,WeatherDisplay:10.37,2013-11-06 06:16:00,
2013-11-06 00:21:00,32.2,30.9,29.98,NNE,23,11.5,11.5,95,0.00,-SN,,0.00,WeatherDisplay:10.37,2013-11-06 06:21:00,
2013-11-06 00:26:00,32.2,30.9,29.98,NNW,346,3.5,3.5,95,0.00,-SN,,0.00,WeatherDisplay:10.37,2013-11-06 06:26:00,
2013-11-06 00:31:00,32.2,30.9,29.99,NNE,17,8.1,8.1,95,0.00,-SN,,0.00,WeatherDisplay:10.37,2013-11-06 06:31:00,
2013-11-06 00:36:00,32.2,30.9,29.99,North,360,4.6,4.6,95,0.00,-SN,,0.00,WeatherDisplay:10.37,2013-11-06 06:36:00,
2013-11-06 00:41:00,32.2,30.9,29.99,North,9,4.6,4.6,95,0.00,-SN,,0.00,WeatherDisplay:10.37,2013-11-06 06:41:00,
2013-11-06 00:46:00,32.2,30.9,29.99,NNW,344,4.6,4.6,95,0.00,OVC,,0.00,WeatherDisplay:10.37,2013-11-06 06:46:00,
2013-11-06 00:51:00,32.2,30.9,29.99,NNW,348,11.5,11.5,95,0.00,OVC,,0.00,WeatherDisplay:10.37,2013-11-06 06:51:00,
2013-11-06 00:56:00,32.4,31.1,29.99,NNE,15,5.8,5.8,95,0.01,RA,,0.01,WeatherDisplay:10.37,2013-11-06 06:56:00,
2013-11-06 01:02:00,32.4,31.1,29.99,NNW,348,6.0,6.0,95,0.01,-SN,,0.01,WeatherDisplay:10.37,2013-11-06 07:02:00,
2013-11-06 01:07:00,32.4,31.1,29.99,NNW,345,5.8,5.8,95,0.01,-SN,,0.01,WeatherDisplay:10.37,2013-11-06 07:07:00,
2013-11-06 01:12:00,32.4,31.1,29.99,NNW,329,5.8,5.8,95,0.01,-SN,,0.01,WeatherDisplay:10.37,2013-11-06 07:12:00,
2013-11-06 01:17:00,32.4,31.1,29.98,North,355,8.1,8.1,95,0.01,-SN,,0.01,WeatherDisplay:10.37,2013-11-06 07:17:00,
2013-11-06 01:22:00,32.4,31.1,29.98,NNE,16,6.9,6.9,95,0.01,-SN,,0.01,WeatherDisplay:10.37,2013-11-06 07:22:00,
2013-11-06 01:27:00,32.4,31.1,29.98,NNW,337,8.1,8.1,95,0.01,-SN,,0.01,WeatherDisplay:10.37,2013-11-06 07:27:00,
2013-11-06 01:32:00,32.2,30.9,29.98,North,350,6.0,6.0,95,0.01,-SN,,0.01,WeatherDisplay:10.37,2013-11-06 07:32:00,
2013-11-06 01:37:00,32.4,31.1,29.98,NNE,18,12.7,12.7,95,0.01,-SN,,0.01,WeatherDisplay:10.37,2013-11-06 07:37:00,
2013-11-06 01:42:00,32.4,31.1,29.98,North,5,7.0,7.0,95,0.01,-SN,,0.01,WeatherDisplay:10.37,2013-11-06 07:42:00,
2013-11-06 01:47:00,32.4,31.1,29.99,North,355,5.8,5.8,95,0.01,-SN,,0.01,WeatherDisplay:10.37,2013-11-06 07:47:00,
2013-11-06 01:52:00,32.4,31.1,29.99,North,349,6.0,6.0,95,0.01,-SN,,0.01,WeatherDisplay:10.37,2013-11-06 07:52:00,
2013-11-06 01:57:00,32.4,31.1,29.99,NNW,342,4.6,4.6,95,0.00,-SN,,0.01,WeatherDisplay:10.37,2013-11-06 07:57:00,
2013-11-06 02:02:00,32.4,31.1,30.00,NW,321,3.5,3.5,95,0.00,-SN,,0.01,WeatherDisplay:10.37,2013-11-06 08:02:00,
2013-11-06 02:07:00,32.4,31.1,30.00,NNW,347,4.6,4.6,95,0.00,-SN,,0.01,WeatherDisplay:10.37,2013-11-06 08:07:00,
2013-11-06 02:12:00,32.2,30.9,30.00,NNW,327,10.4,10.4,95,0.00,-SN,,0.01,WeatherDisplay:10.37,2013-11-06 08:12:00,
2013-11-06 02:17:00,32.2,30.9,29.99,NNE,12,10.4,10.4,95,0.00,-SN,,0.01,WeatherDisplay:10.37,2013-11-06 08:17:00,
2013-11-06 02:22:00,32.2,30.9,29.99,NNE,30,9.2,9.2,95,0.00,-SN,,0.01,WeatherDisplay:10.37,2013-11-06 08:22:00,
2013-11-06 02:27:00,32.2,30.9,29.99,NW,308,9.2,9.2,95,0.00,-SN,,0.01,WeatherDisplay:10.37,2013-11-06 08:27:00,
2013-11-06 02:32:00,32.2,30.9,29.99,North,350,6.9,6.9,95,0.00,-SN,,0.01,WeatherDisplay:10.37,2013-11-06 08:32:00,
2013-11-06 02:37:00,32.2,30.9,29.99,NE,43,5.8,5.8,95,0.00,-SN,,0.01,WeatherDisplay:10.37,2013-11-06 08:37:00,
2013-11-06 02:42:00,32.2,30.9,29.99,NNE,15,11.5,11.5,95,0.00,-SN,,0.01,WeatherDisplay:10.37,2013-11-06 08:42:00,
2013-11-06 02:47:00,32.1,30.8,29.98,North,355,8.1,8.1,95,0.00,-SN,,0.01,WeatherDisplay:10.37,2013-11-06 08:47:00,
2013-11-06 02:52:00,32.1,30.8,29.98,NNW,347,4.0,4.0,95,0.00,-SN,,0.01,WeatherDisplay:10.37,2013-11-06 08:52:00,
2013-11-06 02:57:00,32.1,30.8,29.98,North,355,9.0,9.0,95,0.00,-SN,,0.01,WeatherDisplay:10.37,2013-11-06 08:57:00,
2013-11-06 03:02:00,32.1,30.8,29.99,NNW,330,9.2,9.2,95,0.00,-SN,,0.01,WeatherDisplay:10.37,2013-11-06 09:02:00,
2013-11-06 03:07:00,32.1,30.8,29.99,NNE,17,6.9,6.9,95,0.00,-SN,,0.01,WeatherDisplay:10.37,2013-11-06 09:07:00,
2013-11-06 03:12:00,31.9,30.4,29.99,NNW,343,10.4,10.4,94,0.00,-SN,,0.01,WeatherDisplay:10.37,2013-11-06 09:12:00,
2013-11-06 03:17:00,31.9,30.6,29.99,North,5,11.5,11.5,95,0.00,-SN,,0.01,WeatherDisplay:10.37,2013-11-06 09:17:00,
2013-11-06 03:22:00,31.9,30.4,29.99,North,355,6.9,6.9,94,0.00,-SN,,0.01,WeatherDisplay:10.37,2013-11-06 09:22:00,
2013-11-06 03:27:00,31.9,30.4,29.99,WNW,301,10.4,10.4,94,0.00,-SN,,0.01,WeatherDisplay:10.37,2013-11-06 09:27:00,
2013-11-06 03:32:00,31.9,30.4,30.00,North,355,5.8,5.8,94,0.00,OVC,,0.01,WeatherDisplay:10.37,2013-11-06 09:32:00,
2013-11-06 03:37:00,31.9,30.4,30.00,WNW,290,5.8,5.8,94,0.00,OVC,,0.01,WeatherDisplay:10.37,2013-11-06 09:37:00,
2013-11-06 03:42:00,31.9,30.4,30.00,NW,309,4.6,4.6,94,0.00,OVC,,0.01,WeatherDisplay:10.37,2013-11-06 09:42:00,
2013-11-06 03:47:00,31.8,30.3,30.00,NNW,336,5.8,5.8,94,0.00,-SN,,0.01,WeatherDisplay:10.37,2013-11-06 09:47:00,
2013-11-06 03:52:00,31.8,30.3,30.00,NW,309,6.9,6.9,94,0.00,-SN,,0.01,WeatherDisplay:10.37,2013-11-06 09:52:00,
2013-11-06 03:57:00,31.8,30.3,30.00,North,360,6.0,6.0,94,0.00,-SN,,0.01,WeatherDisplay:10.37,2013-11-06 09:57:00,
2013-11-06 04:02:00,31.8,30.3,30.00,NNE,14,6.9,6.9,94,0.00,-SN,,0.01,WeatherDisplay:10.37,2013-11-06 10:02:00,
2013-11-06 04:07:00,31.8,30.3,30.00,NNE,33,5.8,5.8,94,0.00,-SN,,0.01,WeatherDisplay:10.37,2013-11-06 10:07:00,
2013-11-06 04:12:00,31.8,30.3,30.00,NW,323,6.9,6.9,94,0.00,-SN,,0.01,WeatherDisplay:10.37,2013-11-06 10:12:00,
2013-11-06 04:17:00,31.6,30.1,30.00,NNW,327,10.4,10.4,94,0.00,-SN,,0.01,WeatherDisplay:10.37,2013-11-06 10:17:00,
2013-11-06 04:22:00,31.6,30.1,30.00,North,349,11.5,11.5,94,0.00,-SN,,0.01,WeatherDisplay:10.37,2013-11-06 10:22:00,
2013-11-06 04:27:00,31.6,30.1,30.00,NNW,327,3.5,3.5,94,0.00,-SN,,0.01,WeatherDisplay:10.37,2013-11-06 10:27:00,
2013-11-06 04:32:00,31.6,30.1,30.00,NW,321,4.6,4.6,94,0.00,-SN,,0.01,WeatherDisplay:10.37,2013-11-06 10:32:00,
2013-11-06 04:37:00,31.6,30.1,30.00,North,355,3.5,3.5,94,0.00,-SN,,0.01,WeatherDisplay:10.37,2013-11-06 10:37:00,
2013-11-06 04:42:00,31.6,30.1,30.00,NW,318,5.8,5.8,94,0.00,-SN,,0.01,WeatherDisplay:10.37,2013-11-06 10:42:00,
2013-11-06 04:47:00,31.5,30.0,29.99,NNW,327,3.5,3.5,94,0.00,-SN,,0.01,WeatherDisplay:10.37,2013-11-06 10:47:00,
2013-11-06 04:52:00,31.5,30.0,29.99,NNW,331,5.8,5.8,94,0.00,-SN,,0.01,WeatherDisplay:10.37,2013-11-06 10:52:00,
2013-11-06 04:57:00,31.5,30.0,29.99,North,5,4.6,4.6,94,0.00,-SN,,0.01,WeatherDisplay:10.37,2013-11-06 10:57:00,
2013-11-06 05:02:00,31.3,29.8,30.00,North,355,3.5,3.5,94,0.00,-SN,,0.01,WeatherDisplay:10.37,2013-11-06 11:02:00,
2013-11-06 05:07:00,31.3,29.8,30.00,NNW,338,3.0,3.0,94,0.00,-SN,,0.01,WeatherDisplay:10.37,2013-11-06 11:07:00,
2013-11-06 05:12:00,31.3,29.8,30.00,West,275,3.5,3.5,94,0.00,-SN,,0.01,WeatherDisplay:10.37,2013-11-06 11:12:00,
2013-11-06 05:17:00,31.3,29.8,30.00,NNW,342,3.5,3.5,94,0.00,-SN,,0.01,WeatherDisplay:10.37,2013-11-06 11:17:00,
2013-11-06 05:22:00,31.2,29.4,30.00,NNW,348,3.5,3.5,93,0.00,-SN,,0.01,WeatherDisplay:10.37,2013-11-06 11:22:00,
2013-11-06 05:27:00,31.2,29.4,30.00,North,355,10.4,10.4,93,0.00,-SN,,0.01,WeatherDisplay:10.37,2013-11-06 11:27:00,
2013-11-06 05:32:00,31.0,29.2,30.00,NNW,338,3.5,3.5,93,0.00,-SN,,0.01,WeatherDisplay:10.37,2013-11-06 11:32:00,
2013-11-06 05:37:00,30.9,29.1,30.00,NNW,339,4.6,4.6,93,0.00,-SN,,0.01,WeatherDisplay:10.37,2013-11-06 11:37:00,
2013-11-06 05:42:00,30.9,29.1,30.00,NW,310,4.6,4.6,93,0.00,-SN,,0.01,WeatherDisplay:10.37,2013-11-06 11:42:00,
2013-11-06 05:47:00,30.7,28.9,30.00,NW,326,2.3,0.0,93,0.00,OVC,,0.01,WeatherDisplay:10.37,2013-11-06 11:47:00,
2013-11-06 05:52:00,30.7,28.9,30.00,NNW,336,3.5,3.5,93,0.00,OVC,,0.01,WeatherDisplay:10.37,2013-11-06 11:52:00,
2013-11-06 05:57:00,30.7,28.9,30.00,NW,313,3.5,3.5,93,0.00,OVC,,0.01,WeatherDisplay:10.37,2013-11-06 11:57:00,
2013-11-06 06:02:00,30.7,28.9,30.00,NNW,334,3.5,3.5,93,0.00,SCT,,0.01,WeatherDisplay:10.37,2013-11-06 12:02:00,
2013-11-06 06:07:00,30.7,28.9,30.00,NNW,345,3.5,3.5,93,0.00,SCT,,0.01,WeatherDisplay:10.37,2013-11-06 12:07:00,
2013-11-06 06:12:00,30.6,28.8,30.00,NNW,342,3.5,3.5,93,0.00,SCT,,0.01,WeatherDisplay:10.37,2013-11-06 12:12:00,
2013-11-06 06:17:00,30.4,28.6,30.00,NW,323,4.6,4.6,93,0.00,SCT,,0.01,WeatherDisplay:10.37,2013-11-06 12:17:00,
2013-11-06 06:22:00,30.4,28.6,30.00,WNW,295,3.5,3.5,93,0.00,SCT,,0.01,WeatherDisplay:10.37,2013-11-06 12:22:00,
2013-11-06 06:27:00,30.4,28.4,30.00,NNW,344,3.5,3.5,92,0.00,SCT,,0.01,WeatherDisplay:10.37,2013-11-06 12:27:00,
2013-11-06 06:32:00,30.3,28.3,30.00,NW,324,3.5,3.5,92,0.00,BKN,,0.01,WeatherDisplay:10.37,2013-11-06 12:32:00,
2013-11-06 06:37:00,30.3,28.3,30.00,NW,315,3.5,3.5,92,0.00,BKN,,0.01,WeatherDisplay:10.37,2013-11-06 12:37:00,
2013-11-06 06:42:00,30.3,28.3,30.00,NNW,342,3.5,3.5,92,0.00,BKN,,0.01,WeatherDisplay:10.37,2013-11-06 12:42:00,
2013-11-06 06:47:00,30.3,28.3,30.00,WNW,299,4.6,4.6,92,0.00,SCT,,0.01,WeatherDisplay:10.37,2013-11-06 12:47:00,
2013-11-06 06:52:00,30.1,28.1,30.00,NNW,340,4.6,4.6,92,0.00,SCT,,0.01,WeatherDisplay:10.37,2013-11-06 12:52:00,
2013-11-06 06:57:00,30.1,28.1,30.00,NW,309,2.3,2.3,92,0.00,SCT,,0.01,WeatherDisplay:10.37,2013-11-06 12:57:00,
2013-11-06 07:02:00,30.1,28.1,30.00,NNW,340,3.5,3.5,92,0.00,CLR,,0.01,WeatherDisplay:10.37,2013-11-06 13:02:00,
2013-11-06 07:07:00,30.3,28.3,30.00,NW,320,1.1,0.0,92,0.00,CLR,,0.01,WeatherDisplay:10.37,2013-11-06 13:07:00,
2013-11-06 07:12:00,30.3,28.3,30.00,WNW,295,2.3,2.3,92,0.00,CLR,,0.01,WeatherDisplay:10.37,2013-11-06 13:12:00,
2013-11-06 07:17:00,30.3,28.3,30.01,NW,310,3.5,3.5,92,0.00,CLR,,0.01,WeatherDisplay:10.37,2013-11-06 13:17:00,
2013-11-06 07:22:00,30.3,28.3,30.01,NNW,340,5.0,5.0,92,0.00,CLR,,0.01,WeatherDisplay:10.37,2013-11-06 13:22:00,
2013-11-06 07:27:00,30.3,28.0,30.01,NNW,331,4.6,4.6,91,0.00,CLR,,0.01,WeatherDisplay:10.37,2013-11-06 13:27:00,
2013-11-06 07:32:00,30.4,28.1,30.02,WNW,300,7.0,7.0,91,0.00,BKN,,0.01,WeatherDisplay:10.37,2013-11-06 13:32:00,
2013-11-06 07:37:00,30.4,28.1,30.02,WNW,302,4.6,4.6,91,0.00,BKN,,0.01,WeatherDisplay:10.37,2013-11-06 13:37:00,
2013-11-06 07:42:00,30.4,27.8,30.02,North,355,5.8,5.8,90,0.00,BKN,,0.01,WeatherDisplay:10.37,2013-11-06 13:42:00,
2013-11-06 07:47:00,30.3,27.7,30.02,NNW,327,3.5,3.5,90,0.00,OVC,,0.01,WeatherDisplay:10.37,2013-11-06 13:47:00,
2013-11-06 07:52:00,30.3,27.7,30.02,NNW,339,5.8,5.8,90,0.00,OVC,,0.01,WeatherDisplay:10.37,2013-11-06 13:52:00,
2013-11-06 07:57:00,30.1,27.5,30.02,NW,306,4.6,4.6,90,0.00,OVC,,0.01,WeatherDisplay:10.37,2013-11-06 13:57:00,
2013-11-06 08:02:00,30.1,27.3,30.02,NNW,345,4.0,4.0,89,0.00,BKN,,0.01,WeatherDisplay:10.37,2013-11-06 14:02:00,
2013-11-06 08:07:00,30.0,27.2,30.02,NW,321,6.9,6.9,89,0.00,BKN,,0.01,WeatherDisplay:10.37,2013-11-06 14:07:00,
2013-11-06 08:12:00,30.0,27.2,30.02,NW,321,4.0,4.0,89,0.00,BKN,,0.01,WeatherDisplay:10.37,2013-11-06 14:12:00,
2013-11-06 08:17:00,30.1,27.3,30.03,NNW,348,5.0,5.0,89,0.00,BKN,,0.01,WeatherDisplay:10.37,2013-11-06 14:17:00,
2013-11-06 08:22:00,30.3,27.4,30.03,WNW,302,2.3,2.3,89,0.00,BKN,,0.01,WeatherDisplay:10.37,2013-11-06 14:22:00,
2013-11-06 08:27:00,30.4,27.5,30.03,North,355,5.8,5.8,89,0.00,BKN,,0.01,WeatherDisplay:10.37,2013-11-06 14:27:00,
2013-11-06 08:32:00,30.4,27.3,30.03,NNW,329,3.5,3.5,88,0.00,CLR,,0.01,WeatherDisplay:10.37,2013-11-06 14:32:00,
2013-11-06 08:37:00,30.6,27.2,30.04,NW,316,5.8,5.8,87,0.00,CLR,,0.01,WeatherDisplay:10.37,2013-11-06 14:37:00,
2013-11-06 08:42:00,30.7,27.3,30.03,NNW,345,3.5,3.5,87,0.00,CLR,,0.01,WeatherDisplay:10.37,2013-11-06 14:42:00,
2013-11-06 08:47:00,30.9,27.5,30.03,NNW,327,3.5,3.5,87,0.00,CLR,,0.01,WeatherDisplay:10.37,2013-11-06 14:47:00,
2013-11-06 08:52:00,30.9,27.2,30.03,NW,321,6.9,6.9,86,0.00,CLR,,0.01,WeatherDisplay:10.37,2013-11-06 14:52:00,
2013-11-06 08:57:00,31.0,27.3,30.03,NNW,342,3.5,3.5,86,0.00,CLR,,0.01,WeatherDisplay:10.37,2013-11-06 14:57:00,
2013-11-06 09:02:00,31.2,27.2,30.04,NNW,348,4.6,4.6,85,0.00,CLR,,0.01,WeatherDisplay:10.37,2013-11-06 15:02:00,
2013-11-06 09:07:00,31.3,27.3,30.04,NNW,329,3.5,3.5,85,0.00,CLR,,0.01,WeatherDisplay:10.37,2013-11-06 15:07:00,
2013-11-06 09:12:00,31.6,27.6,30.04,NW,311,4.6,4.6,85,0.00,CLR,,0.01,WeatherDisplay:10.37,2013-11-06 15:12:00,
2013-11-06 09:17:00,31.8,27.5,30.04,WNW,296,4.0,4.0,84,0.00,CLR,,0.01,WeatherDisplay:10.37,2013-11-06 15:17:00,
2013-11-06 09:22:00,31.9,27.6,30.04,WNW,288,2.3,2.3,84,0.00,CLR,,0.01,WeatherDisplay:10.37,2013-11-06 15:22:00,
2013-11-06 09:27:00,32.1,27.5,30.04,WNW,297,3.5,3.5,83,0.00,CLR,,0.01,WeatherDisplay:10.37,2013-11-06 15:27:00,
2013-11-06 09:32:00,32.2,27.6,30.05,NW,309,4.6,4.6,83,0.00,CLR,,0.02,WeatherDisplay:10.37,2013-11-06 15:32:00,
2013-11-06 09:37:00,32.4,27.5,30.05,NW,322,6.9,6.9,82,0.01,RA,,0.02,WeatherDisplay:10.37,2013-11-06 15:37:00,
2013-11-06 09:42:00,32.4,27.2,30.05,NW,304,11.5,11.5,81,0.01,RA,,0.02,WeatherDisplay:10.37,2013-11-06 15:42:00,
2013-11-06 09:47:00,32.7,27.8,30.05,NW,310,4.6,4.6,82,0.01,CLR,,0.02,WeatherDisplay:10.37,2013-11-06 15:47:00,
2013-11-06 09:52:00,32.8,27.3,30.05,North,5,6.9,6.9,80,0.02,RA,,0.03,WeatherDisplay:10.37,2013-11-06 15:52:00,
2013-11-06 09:57:00,32.9,27.4,30.05,NNE,29,6.0,6.0,80,0.03,RA,,0.04,WeatherDisplay:10.37,2013-11-06 15:57:00,
2013-11-06 10:02:00,32.9,26.8,30.05,WNW,289,9.2,9.2,78,0.03,RA,,0.04,WeatherDisplay:10.37,2013-11-06 16:02:00,
2013-11-06 10:07:00,32.9,26.2,30.05,NW,304,4.6,4.6,76,0.04,RA,,0.05,WeatherDisplay:10.37,2013-11-06 16:07:00,
2013-11-06 10:12:00,33.2,26.5,30.05,NW,305,6.9,6.9,76,0.05,RA,,0.06,WeatherDisplay:10.37,2013-11-06 16:12:00,
2013-11-06 10:17:00,33.7,27.6,30.05,West,265,5.8,5.8,78,0.05,RA,,0.06,WeatherDisplay:10.37,2013-11-06 16:17:00,
2013-11-06 10:22:00,33.8,26.4,30.05,NW,308,5.8,5.8,74,0.06,RA,,0.07,WeatherDisplay:10.37,2013-11-06 16:22:00,
2013-11-06 10:27:00,33.8,26.4,30.05,NW,326,4.6,4.6,74,0.06,RA,,0.07,WeatherDisplay:10.37,2013-11-06 16:27:00,
2013-11-06 10:32:00,34.0,27.2,30.06,WNW,301,4.6,4.6,76,0.07,RA,,0.08,WeatherDisplay:10.37,2013-11-06 16:32:00,
2013-11-06 10:37:00,34.3,27.8,30.06,NNW,344,6.9,6.9,77,0.06,RA,,0.08,WeatherDisplay:10.37,2013-11-06 16:37:00,
2013-11-06 10:42:00,34.1,26.7,30.06,NW,319,6.9,6.9,74,0.06,CLR,,0.09,WeatherDisplay:10.37,2013-11-06 16:42:00,
2013-11-06 10:47:00,34.3,26.9,30.06,North,349,5.8,5.8,74,0.07,RA,,0.09,WeatherDisplay:10.37,2013-11-06 16:47:00,
2013-11-06 10:52:00,34.6,27.2,30.06,WNW,295,4.0,4.0,74,0.06,RA,,0.09,WeatherDisplay:10.37,2013-11-06 16:52:00,
2013-11-06 10:57:00,34.7,26.6,30.06,West,266,6.0,6.0,72,0.05,CLR,,0.09,WeatherDisplay:10.37,2013-11-06 16:57:00,
2013-11-06 11:02:00,34.7,25.9,30.07,WNW,286,3.5,3.5,70,0.06,RA,,0.10,WeatherDisplay:10.37,2013-11-06 17:02:00,
2013-11-06 11:07:00,34.9,25.8,30.07,NW,311,12.0,12.0,69,0.05,RA,,0.10,WeatherDisplay:10.37,2013-11-06 17:07:00,
2013-11-06 11:12:00,34.9,25.4,30.07,NW,307,3.5,3.5,68,0.04,CLR,,0.10,WeatherDisplay:10.37,2013-11-06 17:12:00,
2013-11-06 11:17:00,35.2,25.3,30.07,NW,313,3.5,3.5,67,0.04,CLR,,0.10,WeatherDisplay:10.37,2013-11-06 17:17:00,
2013-11-06 11:22:00,35.5,25.3,30.07,West,262,6.9,6.9,66,0.03,CLR,,0.10,WeatherDisplay:10.37,2013-11-06 17:22:00,
2013-11-06 11:27:00,35.6,25.0,30.07,WNW,301,5.0,5.0,65,0.03,CLR,,0.10,WeatherDisplay:10.37,2013-11-06 17:27:00,
2013-11-06 11:32:00,35.8,24.8,30.07,West,259,7.0,7.0,64,0.02,CLR,,0.10,WeatherDisplay:10.37,2013-11-06 17:32:00,
2013-11-06 11:37:00,35.8,24.0,30.07,NW,322,4.6,4.6,62,0.02,CLR,,0.10,WeatherDisplay:10.37,2013-11-06 17:37:00,
2013-11-06 11:42:00,36.5,27.6,30.07,West,263,4.0,4.0,70,0.02,CLR,,0.10,WeatherDisplay:10.37,2013-11-06 17:42:00,
2013-11-06 11:47:00,36.6,26.7,30.07,West,278,4.6,4.6,67,0.01,CLR,,0.10,WeatherDisplay:10.37,2013-11-06 17:47:00,
2013-11-06 11:52:00,36.8,26.9,30.07,WNW,288,5.8,5.8,67,0.01,CLR,,0.10,WeatherDisplay:10.37,2013-11-06 17:52:00,
2013-11-06 11:57:00,36.9,27.0,30.07,West,273,5.0,5.0,67,0.01,CLR,,0.10,WeatherDisplay:10.37,2013-11-06 17:57:00,
2013-11-06 12:02:00,37.2,27.2,30.07,West,265,3.5,3.5,67,0.00,CLR,,0.10,WeatherDisplay:10.37,2013-11-06 18:02:00,
2013-11-06 12:07:00,37.2,26.9,30.07,West,279,1.1,1.1,66,0.00,CLR,,0.10,WeatherDisplay:10.37,2013-11-06 18:07:00,
2013-11-06 12:12:00,36.8,26.5,30.07,SSW,196,3.5,3.5,66,0.00,CLR,,0.10,WeatherDisplay:10.37,2013-11-06 18:12:00,
2013-11-06 12:17:00,37.2,27.6,30.07,WSW,242,4.0,4.0,68,0.00,CLR,,0.10,WeatherDisplay:10.37,2013-11-06 18:17:00,
2013-11-06 12:22:00,37.2,25.8,30.07,WNW,292,6.9,6.9,63,0.00,CLR,,0.10,WeatherDisplay:10.37,2013-11-06 18:22:00,
2013-11-06 12:27:00,37.5,26.4,30.07,West,279,10.0,10.0,64,0.00,CLR,,0.10,WeatherDisplay:10.37,2013-11-06 18:27:00,
2013-11-06 12:32:00,37.8,27.1,30.07,NW,311,5.8,5.8,65,0.00,CLR,,0.10,WeatherDisplay:10.37,2013-11-06 18:32:00,
2013-11-06 12:37:00,37.8,25.9,30.07,West,275,11.5,11.5,62,0.00,CLR,,0.10,WeatherDisplay:10.37,2013-11-06 18:37:00,
2013-11-06 12:42:00,37.5,26.4,30.07,WSW,248,5.8,5.8,64,0.00,CLR,,0.10,WeatherDisplay:10.37,2013-11-06 18:42:00,
2013-11-06 12:47:00,37.6,26.5,30.07,WNW,288,6.9,6.9,64,0.00,CLR,,0.10,WeatherDisplay:10.37,2013-11-06 18:47:00,
2013-11-06 12:52:00,37.6,26.1,30.07,West,266,9.2,9.2,63,0.00,CLR,,0.10,WeatherDisplay:10.37,2013-11-06 18:52:00,
2013-11-06 12:57:00,38.0,26.9,30.07,West,273,6.9,6.9,64,0.00,CLR,,0.10,WeatherDisplay:10.37,2013-11-06 18:57:00,
2013-11-06 13:02:00,38.0,26.9,30.07,West,271,3.5,3.5,64,0.00,CLR,,0.10,WeatherDisplay:10.37,2013-11-06 19:02:00,
2013-11-06 13:07:00,38.0,26.9,30.07,NNW,337,3.5,3.5,64,0.00,CLR,,0.10,WeatherDisplay:10.37,2013-11-06 19:07:00,
2013-11-06 13:12:00,37.9,26.8,30.07,West,267,8.1,8.1,64,0.00,CLR,,0.10,WeatherDisplay:10.37,2013-11-06 19:12:00,
2013-11-06 13:17:00,38.0,26.1,30.07,NW,314,4.6,4.6,62,0.00,CLR,,0.10,WeatherDisplay:10.37,2013-11-06 19:17:00,
2013-11-06 13:22:00,37.9,26.0,30.07,West,268,5.8,5.8,62,0.00,CLR,,0.10,WeatherDisplay:10.37,2013-11-06 19:22:00,
2013-11-06 13:27:00,37.9,25.6,30.07,West,267,10.4,10.4,61,0.00,CLR,,0.10,WeatherDisplay:10.37,2013-11-06 19:27:00,
2013-11-06 13:32:00,38.0,25.7,30.07,West,265,4.6,4.6,61,0.00,CLR,,0.10,WeatherDisplay:10.37,2013-11-06 19:32:00,
2013-11-06 13:37:00,38.0,25.3,30.07,NNW,336,6.0,6.0,60,0.00,CLR,,0.10,WeatherDisplay:10.37,2013-11-06 19:37:00,
2013-11-06 13:42:00,38.3,25.6,30.07,NW,306,4.6,4.6,60,0.00,CLR,,0.10,WeatherDisplay:10.37,2013-11-06 19:42:00,
2013-11-06 13:47:00,38.2,25.5,30.08,WSW,248,4.6,4.6,60,0.00,CLR,,0.10,WeatherDisplay:10.37,2013-11-06 19:47:00,
2013-11-06 13:52:00,38.2,25.5,30.08,WNW,303,5.8,5.8,60,0.00,CLR,,0.10,WeatherDisplay:10.37,2013-11-06 19:52:00,
2013-11-06 13:57:00,38.6,25.9,30.08,West,270,3.5,3.5,60,0.00,CLR,,0.10,WeatherDisplay:10.37,2013-11-06 19:57:00,
2013-11-06 14:02:00,38.8,26.1,30.08,West,278,4.6,4.6,60,0.00,CLR,,0.10,WeatherDisplay:10.37,2013-11-06 20:02:00,
2013-11-06 14:07:00,38.6,25.5,30.08,West,270,5.8,5.8,59,0.00,CLR,,0.10,WeatherDisplay:10.37,2013-11-06 20:07:00,
2013-11-06 14:12:00,38.5,25.0,30.08,WNW,292,4.6,4.6,58,0.00,CLR,,0.10,WeatherDisplay:10.37,2013-11-06 20:12:00,
2013-11-06 14:17:00,38.0,24.1,30.09,WNW,302,6.9,6.9,57,0.00,CLR,,0.10,WeatherDisplay:10.37,2013-11-06 20:17:00,
2013-11-06 14:22:00,38.0,24.1,30.09,NW,321,5.8,5.8,57,0.00,CLR,,0.10,WeatherDisplay:10.37,2013-11-06 20:22:00,
2013-11-06 14:27:00,38.0,24.1,30.09,West,271,5.8,5.8,57,0.00,CLR,,0.10,WeatherDisplay:10.37,2013-11-06 20:27:00,
2013-11-06 14:32:00,37.8,24.7,30.09,SW,232,4.6,4.6,59,0.00,CLR,,0.10,WeatherDisplay:10.37,2013-11-06 20:32:00,
2013-11-06 14:37:00,38.3,26.4,30.09,West,273,4.6,4.6,62,0.00,CLR,,0.10,WeatherDisplay:10.37,2013-11-06 20:37:00,
2013-11-06 14:42:00,38.8,27.3,30.09,West,263,4.0,4.0,63,0.00,CLR,,0.10,WeatherDisplay:10.37,2013-11-06 20:42:00,
2013-11-06 14:47:00,39.1,27.6,30.09,WSW,244,5.8,5.8,63,0.00,CLR,,0.10,WeatherDisplay:10.37,2013-11-06 20:47:00,
2013-11-06 14:52:00,38.5,26.6,30.09,NW,309,9.2,9.2,62,0.00,CLR,,0.10,WeatherDisplay:10.37,2013-11-06 20:52:00,
2013-11-06 14:57:00,38.0,26.9,30.09,West,271,5.8,5.8,64,0.00,CLR,,0.10,WeatherDisplay:10.37,2013-11-06 20:57:00,
2013-11-06 15:02:00,37.9,26.8,30.09,WNW,283,6.9,6.9,64,0.00,CLR,,0.10,WeatherDisplay:10.37,2013-11-06 21:02:00,
2013-11-06 15:07:00,38.0,26.9,30.09,NW,309,5.8,5.8,64,0.00,CLR,,0.10,WeatherDisplay:10.37,2013-11-06 21:07:00,
2013-11-06 15:12:00,37.9,26.8,30.09,WNW,289,4.6,4.6,64,0.00,CLR,,0.10,WeatherDisplay:10.37,2013-11-06 21:12:00,
2013-11-06 15:17:00,37.6,25.7,30.10,WSW,258,9.2,9.2,62,0.00,CLR,,0.10,WeatherDisplay:10.37,2013-11-06 21:17:00,
2013-11-06 15:22:00,37.6,25.7,30.10,West,277,11.5,11.5,62,0.00,CLR,,0.10,WeatherDisplay:10.37,2013-11-06 21:22:00,
2013-11-06 15:27:00,37.8,25.5,30.10,WSW,253,6.9,6.9,61,0.00,CLR,,0.10,WeatherDisplay:10.37,2013-11-06 21:27:00,
2013-11-06 15:32:00,38.0,26.1,30.10,WSW,256,3.5,3.5,62,0.00,CLR,,0.10,WeatherDisplay:10.37,2013-11-06 21:32:00,
2013-11-06 15:37:00,38.0,26.1,30.10,WSW,245,4.6,4.6,62,0.00,CLR,,0.10,WeatherDisplay:10.37,2013-11-06 21:37:00,
2013-11-06 15:42:00,37.8,26.7,30.10,West,265,4.0,4.0,64,0.00,CLR,,0.10,WeatherDisplay:10.37,2013-11-06 21:42:00,
2013-11-06 15:47:00,37.8,26.7,30.11,SW,226,4.6,4.6,64,0.00,CLR,,0.10,WeatherDisplay:10.37,2013-11-06 21:47:00,
2013-11-06 15:52:00,37.6,26.1,30.11,WSW,258,6.9,6.9,63,0.00,CLR,,0.10,WeatherDisplay:10.37,2013-11-06 21:52:00,
2013-11-06 15:57:00,37.3,26.2,30.11,WNW,292,3.5,3.5,64,0.00,CLR,,0.10,WeatherDisplay:10.37,2013-11-06 21:57:00,
2013-11-06 16:02:00,37.2,26.1,30.11,WSW,250,6.0,6.0,64,0.00,CLR,,0.10,WeatherDisplay:10.37,2013-11-06 22:02:00,
2013-11-06 16:07:00,36.8,26.1,30.11,WSW,238,4.6,4.6,65,0.00,CLR,,0.10,WeatherDisplay:10.37,2013-11-06 22:07:00,
2013-11-06 16:12:00,36.3,26.0,30.11,SW,217,5.8,5.8,66,0.00,CLR,,0.10,WeatherDisplay:10.37,2013-11-06 22:12:00,
2013-11-06 16:17:00,36.2,26.3,30.11,SW,217,5.8,5.8,67,0.00,CLR,,0.10,WeatherDisplay:10.37,2013-11-06 22:17:00,
2013-11-06 16:22:00,35.8,25.9,30.11,WSW,248,5.8,5.8,67,0.00,CLR,,0.10,WeatherDisplay:10.37,2013-11-06 22:22:00,
2013-11-06 16:27:00,35.5,25.6,30.11,West,259,4.0,4.0,67,0.00,CLR,,0.10,WeatherDisplay:10.37,2013-11-06 22:27:00,
2013-11-06 16:32:00,35.2,25.7,30.11,West,259,4.6,4.6,68,0.00,CLR,,0.10,WeatherDisplay:10.37,2013-11-06 22:32:00,
2013-11-06 16:37:00,34.9,25.8,30.11,WSW,248,3.5,3.5,69,0.00,CLR,,0.10,WeatherDisplay:10.37,2013-11-06 22:37:00,
2013-11-06 16:42:00,34.6,25.5,30.11,WSW,250,3.5,3.5,69,0.00,CLR,,0.10,WeatherDisplay:10.37,2013-11-06 22:42:00,
2013-11-06 16:47:00,34.4,25.6,30.11,WSW,250,3.5,3.5,70,0.00,SCT,,0.10,WeatherDisplay:10.37,2013-11-06 22:47:00,
2013-11-06 16:52:00,34.1,25.0,30.11,WSW,248,3.5,3.5,69,0.00,SCT,,0.10,WeatherDisplay:10.37,2013-11-06 22:52:00,
2013-11-06 16:57:00,34.0,24.9,30.11,WNW,295,2.0,2.0,69,0.00,SCT,,0.10,WeatherDisplay:10.37,2013-11-06 22:57:00,
2013-11-06 17:02:00,33.8,24.7,30.11,WNW,295,0.0,0.0,69,0.00,SCT,,0.10,WeatherDisplay:10.37,2013-11-06 23:02:00,
2013-11-06 17:07:00,33.8,25.0,30.11,WSW,255,3.5,3.5,70,0.00,SCT,,0.10,WeatherDisplay:10.37,2013-11-06 23:07:00,
2013-11-06 17:12:00,33.7,25.0,30.11,WSW,255,3.5,3.5,70,0.00,SCT,,0.10,WeatherDisplay:10.37,2013-11-06 23:12:00,
2013-11-06 17:17:00,33.4,25.0,30.11,WSW,255,3.5,3.5,71,0.00,SCT,,0.10,WeatherDisplay:10.37,2013-11-06 23:17:00,
2013-11-06 17:22:00,33.2,24.8,30.11,WNW,293,4.0,4.0,71,0.00,SCT,,0.10,WeatherDisplay:10.37,2013-11-06 23:22:00,
2013-11-06 17:27:00,32.9,24.9,30.11,WSW,253,3.5,3.5,72,0.00,SCT,,0.10,WeatherDisplay:10.37,2013-11-06 23:27:00,
2013-11-06 17:32:00,32.8,24.8,30.11,WSW,246,2.3,2.3,72,0.00,SCT,,0.10,WeatherDisplay:10.37,2013-11-06 23:32:00,
2013-11-06 17:37:00,32.7,24.7,30.11,WSW,251,2.0,2.0,72,0.00,SCT,,0.10,WeatherDisplay:10.37,2013-11-06 23:37:00,
2013-11-06 17:42:00,32.5,24.5,30.11,WSW,251,2.3,2.3,72,0.00,SCT,,0.10,WeatherDisplay:10.37,2013-11-06 23:42:00,
2013-11-06 17:47:00,32.5,24.5,30.11,SW,229,2.3,2.3,72,0.00,SCT,,0.10,WeatherDisplay:10.37,2013-11-06 23:47:00,
2013-11-06 17:52:00,32.4,24.4,30.11,West,263,5.8,5.8,72,0.00,SCT,,0.10,WeatherDisplay:10.37,2013-11-06 23:52:00,
2013-11-06 17:57:00,32.2,24.5,30.11,West,263,3.5,3.5,73,0.00,SCT,,0.10,WeatherDisplay:10.37,2013-11-06 23:57:00,
2013-11-06 18:02:00,32.1,24.4,30.12,NW,306,2.3,2.3,73,0.00,SCT,,0.10,WeatherDisplay:10.37,2013-11-07 00:02:00,
2013-11-06 18:07:00,31.9,24.2,30.12,SW,215,1.1,1.1,73,0.00,SCT,,0.10,WeatherDisplay:10.37,2013-11-07 00:07:00,
2013-11-06 18:12:00,31.8,24.1,30.12,WSW,252,4.6,4.6,73,0.00,SCT,,0.10,WeatherDisplay:10.37,2013-11-07 00:12:00,
2013-11-06 18:17:00,31.8,24.1,30.13,NW,325,6.9,6.9,73,0.00,SCT,,0.10,WeatherDisplay:10.37,2013-11-07 00:17:00,
2013-11-06 18:22:00,31.8,23.8,30.13,WSW,250,9.2,9.2,72,0.00,SCT,,0.10,WeatherDisplay:10.37,2013-11-07 00:22:00,
2013-11-06 18:27:00,31.8,23.8,30.13,WNW,282,3.5,3.5,72,0.00,SCT,,0.10,WeatherDisplay:10.37,2013-11-07 00:27:00,
2013-11-06 18:32:00,31.6,23.3,30.13,SW,228,4.6,4.6,71,0.00,SCT,,0.10,WeatherDisplay:10.37,2013-11-07 00:32:00,
2013-11-06 18:37:00,31.6,23.3,30.13,WSW,252,3.5,3.5,71,0.00,SCT,,0.10,WeatherDisplay:10.37,2013-11-07 00:37:00,
2013-11-06 18:42:00,31.6,23.3,30.13,SW,223,6.9,6.9,71,0.00,SCT,,0.10,WeatherDisplay:10.37,2013-11-07 00:42:00,
2013-11-06 18:47:00,31.6,23.3,30.13,WSW,256,4.6,4.6,71,0.00,CLR,,0.10,WeatherDisplay:10.37,2013-11-07 00:47:00,
2013-11-06 18:52:00,31.6,23.3,30.13,WSW,254,4.6,4.6,71,0.00,CLR,,0.10,WeatherDisplay:10.37,2013-11-07 00:52:00,
2013-11-06 18:57:00,31.8,23.1,30.13,SW,235,4.6,4.6,70,0.00,CLR,,0.10,WeatherDisplay:10.37,2013-11-07 00:57:00,
2013-11-06 19:02:00,31.8,23.1,30.13,SW,230,3.5,3.5,70,0.00,CLR,,0.10,WeatherDisplay:10.37,2013-11-07 01:02:00,
2013-11-06 19:07:00,31.8,23.1,30.13,SSW,193,3.5,3.5,70,0.00,CLR,,0.10,WeatherDisplay:10.37,2013-11-07 01:07:00,
2013-11-06 19:12:00,31.8,22.8,30.13,WSW,245,9.2,9.2,69,0.00,CLR,,0.10,WeatherDisplay:10.37,2013-11-07 01:12:00,
2013-11-06 19:17:00,31.9,23.2,30.13,SSW,207,4.6,4.6,70,0.00,CLR,,0.10,WeatherDisplay:10.37,2013-11-07 01:17:00,
2013-11-06 19:22:00,31.8,23.1,30.13,SSW,213,5.0,5.0,70,0.00,CLR,,0.10,WeatherDisplay:10.37,2013-11-07 01:22:00,
2013-11-06 19:27:00,31.9,23.2,30.13,SW,221,5.8,5.8,70,0.00,CLR,,0.10,WeatherDisplay:10.37,2013-11-07 01:27:00,
2013-11-06 19:32:00,31.9,23.6,30.13,WSW,248,4.6,4.6,71,0.00,SCT,,0.10,WeatherDisplay:10.37,2013-11-07 01:32:00,
2013-11-06 19:37:00,31.9,23.6,30.13,SW,221,4.6,4.6,71,0.00,SCT,,0.10,WeatherDisplay:10.37,2013-11-07 01:37:00,
2013-11-06 19:42:00,31.9,23.6,30.13,West,263,8.0,8.0,71,0.00,SCT,,0.10,WeatherDisplay:10.37,2013-11-07 01:42:00,
2013-11-06 19:47:00,32.1,23.4,30.13,WSW,246,4.0,4.0,70,0.00,BKN,,0.10,WeatherDisplay:10.37,2013-11-07 01:47:00,
2013-11-06 19:52:00,32.2,23.5,30.13,SSE,165,6.9,6.9,70,0.00,BKN,,0.10,WeatherDisplay:10.37,2013-11-07 01:52:00,
2013-11-06 19:57:00,32.4,24.0,30.13,WSW,250,6.9,6.9,71,0.00,BKN,,0.10,WeatherDisplay:10.37,2013-11-07 01:57:00,
2013-11-06 20:02:00,32.5,23.8,30.13,SW,225,3.5,3.5,70,0.00,OVC,,0.10,WeatherDisplay:10.37,2013-11-07 02:02:00,
2013-11-06 20:07:00,32.5,23.8,30.13,SW,225,6.9,6.9,70,0.00,OVC,,0.10,WeatherDisplay:10.37,2013-11-07 02:07:00,
2013-11-06 20:12:00,32.5,23.8,30.13,WSW,245,3.5,3.5,70,0.00,OVC,,0.10,WeatherDisplay:10.37,2013-11-07 02:12:00,
2013-11-06 20:17:00,32.5,23.8,30.13,West,275,5.0,5.0,70,0.00,OVC,,0.10,WeatherDisplay:10.37,2013-11-07 02:17:00,
2013-11-06 20:22:00,32.5,23.8,30.13,SW,236,3.5,3.5,70,0.00,OVC,,0.10,WeatherDisplay:10.37,2013-11-07 02:22:00,
2013-11-06 20:27:00,32.5,24.1,30.13,SW,220,5.8,5.8,71,0.00,OVC,,0.10,WeatherDisplay:10.37,2013-11-07 02:27:00,
2013-11-06 20:32:00,32.5,24.1,30.13,WSW,251,9.2,9.2,71,0.00,OVC,,0.10,WeatherDisplay:10.37,2013-11-07 02:32:00,
2013-11-06 20:37:00,32.7,24.0,30.13,SW,229,9.2,9.2,70,0.00,OVC,,0.10,WeatherDisplay:10.37,2013-11-07 02:37:00,
2013-11-06 20:42:00,32.7,24.3,30.13,WSW,242,3.5,3.5,71,0.00,OVC,,0.10,WeatherDisplay:10.37,2013-11-07 02:42:00,
2013-11-06 20:47:00,32.7,24.3,30.13,WSW,238,5.8,5.8,71,0.00,OVC,,0.10,WeatherDisplay:10.37,2013-11-07 02:47:00,
2013-11-06 20:52:00,32.7,24.3,30.13,SW,236,6.9,6.9,71,0.00,OVC,,0.10,WeatherDisplay:10.37,2013-11-07 02:52:00,
2013-11-06 20:57:00,32.7,24.3,30.13,WSW,246,3.5,3.5,71,0.00,OVC,,0.10,WeatherDisplay:10.37,2013-11-07 02:57:00,
2013-11-06 21:02:00,32.7,24.3,30.13,WSW,244,6.9,6.9,71,0.00,OVC,,0.10,WeatherDisplay:10.37,2013-11-07 03:02:00,
2013-11-06 21:07:00,32.7,24.3,30.13,SSW,213,4.0,4.0,71,0.00,OVC,,0.10,WeatherDisplay:10.37,2013-11-07 03:07:00,
2013-11-06 21:12:00,32.7,24.3,30.13,WSW,256,6.9,6.9,71,0.00,OVC,,0.10,WeatherDisplay:10.37,2013-11-07 03:12:00,
2013-11-06 21:17:00,32.7,24.7,30.13,WSW,244,6.9,6.9,72,0.00,OVC,,0.10,WeatherDisplay:10.37,2013-11-07 03:17:00,
2013-11-06 21:22:00,32.7,24.7,30.13,West,260,3.5,3.5,72,0.00,OVC,,0.10,WeatherDisplay:10.37,2013-11-07 03:22:00,
2013-11-06 21:27:00,32.7,24.7,30.13,West,275,6.9,6.9,72,0.00,OVC,,0.10,WeatherDisplay:10.37,2013-11-07 03:27:00,
2013-11-06 21:32:00,32.7,25.0,30.13,WNW,288,8.1,8.1,73,0.00,OVC,,0.10,WeatherDisplay:10.37,2013-11-07 03:32:00,
2013-11-06 21:37:00,32.5,24.8,30.13,NW,319,5.8,5.8,73,0.00,OVC,,0.10,WeatherDisplay:10.37,2013-11-07 03:37:00,
2013-11-06 21:42:00,32.5,24.8,30.13,West,267,6.9,6.9,73,0.00,OVC,,0.10,WeatherDisplay:10.37,2013-11-07 03:42:00,
2013-11-06 21:47:00,32.4,24.7,30.13,West,264,4.6,4.6,73,0.00,OVC,,0.10,WeatherDisplay:10.37,2013-11-07 03:47:00,
2013-11-06 21:52:00,32.4,24.7,30.13,West,265,6.9,6.9,73,0.00,OVC,,0.10,WeatherDisplay:10.37,2013-11-07 03:52:00,
2013-11-06 21:57:00,32.2,24.8,30.13,WSW,241,5.8,5.8,74,0.00,OVC,,0.10,WeatherDisplay:10.37,2013-11-07 03:57:00,
2013-11-06 22:02:00,32.2,24.8,30.14,WNW,292,11.5,11.5,74,0.00,OVC,,0.10,WeatherDisplay:10.37,2013-11-07 04:02:00,
2013-11-06 22:07:00,32.2,24.8,30.14,WNW,285,10.4,10.4,74,0.00,OVC,,0.10,WeatherDisplay:10.37,2013-11-07 04:07:00,
2013-11-06 22:12:00,32.1,24.7,30.14,WSW,254,3.5,3.5,74,0.00,OVC,,0.10,WeatherDisplay:10.37,2013-11-07 04:12:00,
2013-11-06 22:17:00,32.1,24.7,30.15,West,270,8.1,8.1,74,0.00,OVC,,0.10,WeatherDisplay:10.37,2013-11-07 04:17:00,
2013-11-06 22:22:00,31.9,24.6,30.15,West,269,5.0,5.0,74,0.00,OVC,,0.10,WeatherDisplay:10.37,2013-11-07 04:22:00,
2013-11-06 22:27:00,31.9,24.9,30.15,West,274,4.0,4.0,75,0.00,OVC,,0.10,WeatherDisplay:10.37,2013-11-07 04:27:00,
2013-11-06 22:32:00,31.8,24.8,30.15,West,266,5.8,5.8,75,0.00,OVC,,0.10,WeatherDisplay:10.37,2013-11-07 04:32:00,
2013-11-06 22:37:00,31.8,24.8,30.15,WSW,255,7.0,7.0,75,0.00,OVC,,0.10,WeatherDisplay:10.37,2013-11-07 04:37:00,
2013-11-06 22:42:00,31.6,24.6,30.15,WSW,257,6.9,6.9,75,0.00,OVC,,0.10,WeatherDisplay:10.37,2013-11-07 04:42:00,
2013-11-06 22:47:00,31.6,24.6,30.15,NW,311,5.8,5.8,75,0.00,OVC,,0.10,WeatherDisplay:10.37,2013-11-07 04:47:00,
2013-11-06 22:52:00,31.3,24.6,30.15,West,279,7.0,7.0,76,0.00,OVC,,0.10,WeatherDisplay:10.37,2013-11-07 04:52:00,
2013-11-06 22:57:00,31.2,24.5,30.15,West,259,10.4,10.4,76,0.00,OVC,,0.10,WeatherDisplay:10.37,2013-11-07 04:57:00,
2013-11-06 23:01:00,31.0,24.3,30.14,West,279,11.5,11.5,76,0.00,SCT,,0.10,WeatherDisplay:10.37,2013-11-07 05:01:00,
2013-11-06 23:06:00,30.7,24.3,30.14,West,270,5.8,5.8,77,0.00,SCT,,0.10,WeatherDisplay:10.37,2013-11-07 05:06:00,
2013-11-06 23:11:00,30.6,24.2,30.14,SW,235,5.8,5.8,77,0.00,SCT,,0.10,WeatherDisplay:10.37,2013-11-07 05:11:00,
2013-11-06 23:16:00,30.4,24.4,30.14,WNW,302,4.6,4.6,78,0.00,SCT,,0.10,WeatherDisplay:10.37,2013-11-07 05:16:00,
2013-11-06 23:21:00,30.3,24.3,30.14,WSW,251,5.8,5.8,78,0.00,SCT,,0.10,WeatherDisplay:10.37,2013-11-07 05:21:00,
2013-11-06 23:26:00,30.0,24.3,30.14,WSW,257,5.8,5.8,79,0.00,SCT,,0.10,WeatherDisplay:10.37,2013-11-07 05:26:00,
2013-11-06 23:31:00,29.8,24.4,30.14,West,274,6.0,6.0,80,0.00,CLR,,0.10,WeatherDisplay:10.37,2013-11-07 05:31:00,
2013-11-06 23:36:00,29.7,24.3,30.14,SW,233,3.5,3.7,80,0.00,CLR,,0.10,WeatherDisplay:10.37,2013-11-07 05:36:00,
2013-11-06 23:41:00,29.5,24.1,30.14,WSW,241,4.6,4.6,80,0.00,CLR,,0.10,WeatherDisplay:10.37,2013-11-07 05:41:00,
2013-11-06 23:46:00,29.4,24.3,30.14,WSW,258,6.9,6.9,81,0.00,CLR,,0.10,WeatherDisplay:10.37,2013-11-07 05:46:00,
2013-11-06 23:51:00,29.3,24.2,30.14,WSW,252,6.9,6.9,81,0.00,CLR,,0.10,WeatherDisplay:10.37,2013-11-07 05:51:00,
2013-11-06 23:56:00,29.1,24.0,30.14,West,267,7.0,7.0,81,0.00,CLR,,0.10,WeatherDisplay:10.37,2013-11-07 05:56:00,